Time;durP1;ratioP1;P1;durP2;ratioP2;P2;SDS_P1;SDS_P2;PMS_P1;PMS_P2;Temp;Humidity;BMP_temperature;BMP_pressure;BME280_temperature;BME280_humidity;BME280_pressure;Samples;Min_cycle;Max_cycle;Signal;HPM_P1;HPM_P2
2022/08/14 00:00:19;;;;;;;;;;;17.50;99.90;;;;;;5134544;27;19996;-74
2022/08/14 00:02:45;;;;;;;;;;;17.40;99.90;;;;;;5134088;27;19903;-75
2022/08/14 00:05:12;;;;;;;;;;;17.40;99.90;;;;;;5134669;27;19904;-74
2022/08/14 00:07:38;;;;;;;;;;;17.30;99.90;;;;;;5134444;27;19910;-74
2022/08/14 00:10:05;;;;;;;;;;;17.30;99.90;;;;;;5133430;27;20652;-74
2022/08/14 00:12:32;;;;;;;;;;;17.30;99.90;;;;;;5134200;27;19903;-74
2022/08/14 00:14:57;;;;;;;;;;;17.40;99.90;;;;;;5133693;27;19950;-74
2022/08/14 00:17:23;;;;;;;;;;;17.30;99.90;;;;;;5134507;27;19950;-74
2022/08/14 00:19:49;;;;;;;;;;;17.30;99.90;;;;;;5133635;27;19911;-74
2022/08/14 00:22:17;;;;;;;;;;;17.30;99.90;;;;;;5134057;27;19956;-74
2022/08/14 00:24:45;;;;;;;;;;;17.30;99.90;;;;;;5133657;27;19911;-74
2022/08/14 00:27:11;;;;;;;;;;;17.40;99.90;;;;;;5133374;27;20002;-74
2022/08/14 00:29:37;;;;;;;;;;;17.30;99.90;;;;;;5133763;27;20424;-74
2022/08/14 00:32:02;;;;;;;;;;;17.30;99.90;;;;;;5133366;27;19903;-73
2022/08/14 00:34:28;;;;;;;;;;;17.20;99.90;;;;;;5133624;27;19904;-74
2022/08/14 00:36:53;;;;;;;;;;;17.20;99.90;;;;;;5133059;27;19912;-74
2022/08/14 00:39:19;;;;;;;;;;;17.20;99.90;;;;;;5133953;27;19905;-74
2022/08/14 00:41:46;;;;;;;;;;;17.20;99.90;;;;;;5133502;27;19915;-74
2022/08/14 00:44:12;;;;;;;;;;;17.20;99.90;;;;;;5133594;28;19942;-74
2022/08/14 00:46:38;;;;;;;;;;;17.10;99.90;;;;;;5115376;28;20002;-73
2022/08/14 00:49:04;;;;;;;;;;;17.20;99.90;;;;;;5133161;28;20305;-73
2022/08/14 00:51:31;;;;;;;;;;;17.20;99.90;;;;;;5133902;28;19918;-74
2022/08/14 00:53:57;;;;;;;;;;;17.20;99.90;;;;;;5133085;28;20308;-74
2022/08/14 00:56:23;;;;;;;;;;;17.20;99.90;;;;;;5133574;28;20006;-74
2022/08/14 00:58:49;;;;;;;;;;;17.20;99.90;;;;;;5133356;28;19995;-74
2022/08/14 01:01:17;;;;;;;;;;;17.30;99.90;;;;;;5133925;28;19931;-74
2022/08/14 01:03:43;;;;;;;;;;;17.30;99.90;;;;;;5133476;28;19907;-74
2022/08/14 01:06:09;;;;;;;;;;;17.30;99.90;;;;;;5133229;28;19983;-74
2022/08/14 01:08:36;;;;;;;;;;;17.30;99.90;;;;;;5133696;28;19977;-74
2022/08/14 01:11:01;;;;;;;;;;;17.30;99.90;;;;;;5133130;28;19998;-74
2022/08/14 01:13:29;;;;;;;;;;;17.30;99.90;;;;;;5133652;28;19965;-74
2022/08/14 01:15:55;;;;;;;;;;;17.20;99.90;;;;;;5132982;28;19907;-74
2022/08/14 01:21:08;;;;;;;;;;;17.10;99.90;;;;;;5132779;28;19955;-74
2022/08/14 01:23:34;;;;;;;;;;;17.10;99.90;;;;;;5133280;28;19903;-74
2022/08/14 01:26:00;;;;;;;;;;;17.10;99.90;;;;;;5132845;28;19911;-74
2022/08/14 01:28:26;;;;;;;;;;;17.10;99.90;;;;;;5133430;28;20352;-74
2022/08/14 01:30:56;;;;;;;;;;;17.10;99.90;;;;;;5132743;28;19998;-74
2022/08/14 01:33:29;;;;;;;;;;;17.10;99.90;;;;;;5133346;28;19911;-74
2022/08/14 01:35:56;;;;;;;;;;;17.10;99.90;;;;;;5132529;28;20356;-74
2022/08/14 01:38:23;;;;;;;;;;;17.10;99.90;;;;;;5132990;28;19907;-74
2022/08/14 01:40:49;;;;;;;;;;;17.10;99.90;;;;;;5132919;28;19991;-74
2022/08/14 01:43:16;;;;;;;;;;;17.00;99.90;;;;;;5133607;27;19903;-74
2022/08/14 01:45:47;;;;;;;;;;;17.10;99.90;;;;;;5136906;27;20005;-74
2022/08/14 01:48:13;;;;;;;;;;;17.00;99.90;;;;;;5136188;27;19962;-75
2022/08/14 01:50:40;;;;;;;;;;;17.00;99.90;;;;;;5136864;27;19903;-73
2022/08/14 01:53:06;;;;;;;;;;;17.00;99.90;;;;;;5136847;27;20265;-74
2022/08/14 01:55:33;;;;;;;;;;;17.00;99.90;;;;;;5136586;27;19907;-73
2022/08/14 01:57:59;;;;;;;;;;;17.00;99.90;;;;;;5136158;27;20450;-73
2022/08/14 02:00:24;;;;;;;;;;;17.00;99.90;;;;;;5136817;27;19903;-73
2022/08/14 02:02:50;;;;;;;;;;;17.00;99.90;;;;;;5136846;27;19955;-74
2022/08/14 02:05:16;;;;;;;;;;;17.00;99.90;;;;;;5136747;27;20351;-73
2022/08/14 02:07:43;;;;;;;;;;;17.00;99.90;;;;;;5136644;27;19904;-73
2022/08/14 02:10:11;;;;;;;;;;;17.00;99.90;;;;;;5136045;27;19957;-73
2022/08/14 02:12:36;;;;;;;;;;;17.00;99.90;;;;;;5136295;27;19911;-74
2022/08/14 02:15:03;;;;;;;;;;;16.90;99.90;;;;;;5135834;27;19911;-73
2022/08/14 02:17:31;;;;;;;;;;;16.90;99.90;;;;;;5136585;27;19994;-74
2022/08/14 02:19:57;;;;;;;;;;;16.90;99.90;;;;;;5136133;27;20005;-73
2022/08/14 02:22:23;;;;;;;;;;;16.90;99.90;;;;;;5136162;27;19956;-73
2022/08/14 02:24:48;;;;;;;;;;;16.90;99.90;;;;;;5136515;27;19903;-74
2022/08/14 02:27:17;;;;;;;;;;;16.90;99.90;;;;;;5135798;27;19914;-73
2022/08/14 02:29:43;;;;;;;;;;;16.90;99.90;;;;;;5118415;27;19910;-73
2022/08/14 02:32:10;;;;;;;;;;;16.90;99.90;;;;;;5134549;27;19903;-73
2022/08/14 02:34:37;;;;;;;;;;;16.90;99.90;;;;;;5135919;27;20348;-74
2022/08/14 02:37:05;;;;;;;;;;;16.80;99.90;;;;;;5135643;27;20393;-73
2022/08/14 02:39:31;;;;;;;;;;;16.70;99.90;;;;;;5136090;27;20010;-73
2022/08/14 02:41:57;;;;;;;;;;;16.70;99.90;;;;;;5135198;27;19967;-73
2022/08/14 02:44:22;;;;;;;;;;;16.70;99.90;;;;;;5136065;27;19903;-73
2022/08/14 02:46:49;;;;;;;;;;;16.60;99.90;;;;;;5136146;27;20051;-73
2022/08/14 02:49:15;;;;;;;;;;;16.60;99.90;;;;;;5134866;27;19907;-74
2022/08/14 02:51:41;;;;;;;;;;;16.60;99.90;;;;;;5135854;27;20374;-73
2022/08/14 02:54:07;;;;;;;;;;;16.60;99.90;;;;;;5134690;27;20259;-74
2022/08/14 02:56:37;;;;;;;;;;;16.60;99.90;;;;;;5135761;27;20357;-74
2022/08/14 02:59:04;;;;;;;;;;;16.60;99.90;;;;;;5135099;27;19908;-74
2022/08/14 03:01:29;;;;;;;;;;;16.60;99.90;;;;;;5135701;27;19997;-74
2022/08/14 03:03:55;;;;;;;;;;;16.60;99.90;;;;;;5135031;27;19987;-74
2022/08/14 03:06:24;;;;;;;;;;;16.60;99.90;;;;;;5135589;27;19904;-74
2022/08/14 03:08:50;;;;;;;;;;;16.50;99.90;;;;;;5135620;27;19960;-74
2022/08/14 03:11:15;;;;;;;;;;;16.50;99.90;;;;;;5135333;27;19904;-74
2022/08/14 03:13:43;;;;;;;;;;;16.40;99.90;;;;;;5135375;27;19997;-74
2022/08/14 03:16:15;;;;;;;;;;;16.40;99.90;;;;;;5134366;27;19908;-74
2022/08/14 03:18:42;;;;;;;;;;;16.40;99.90;;;;;;5135501;27;19930;-74
2022/08/14 03:21:12;;;;;;;;;;;16.40;99.90;;;;;;5134411;27;19903;-74
2022/08/14 03:23:41;;;;;;;;;;;16.40;99.90;;;;;;5135104;27;19935;-74
2022/08/14 03:26:08;;;;;;;;;;;16.40;99.90;;;;;;5134699;27;19903;-74
2022/08/14 03:28:33;;;;;;;;;;;16.40;99.90;;;;;;5135273;27;19952;-74
2022/08/14 03:30:59;;;;;;;;;;;16.40;99.90;;;;;;5116256;27;19908;-74
2022/08/14 03:33:26;;;;;;;;;;;16.40;99.90;;;;;;5135197;27;19904;-74
2022/08/14 03:35:52;;;;;;;;;;;16.40;99.90;;;;;;5134984;27;20030;-74
2022/08/14 03:38:17;;;;;;;;;;;16.30;99.90;;;;;;5115887;27;20038;-74
2022/08/14 03:40:44;;;;;;;;;;;16.30;99.90;;;;;;5134858;27;19995;-74
2022/08/14 03:43:10;;;;;;;;;;;16.30;99.90;;;;;;5134329;27;19903;-74
2022/08/14 03:45:36;;;;;;;;;;;16.20;99.90;;;;;;5134799;27;19903;-74
2022/08/14 03:48:14;;;;;;;;;;;16.20;99.90;;;;;;5134333;27;20256;-74
2022/08/14 03:50:43;;;;;;;;;;;16.20;99.90;;;;;;5134476;27;19968;-74
2022/08/14 03:53:09;;;;;;;;;;;16.10;99.90;;;;;;5134105;27;19994;-74
2022/08/14 03:55:35;;;;;;;;;;;16.00;99.90;;;;;;5134548;27;19960;-74
2022/08/14 03:58:01;;;;;;;;;;;16.00;99.90;;;;;;5133881;27;19916;-75
2022/08/14 04:00:28;;;;;;;;;;;15.90;99.90;;;;;;5134378;27;19904;-74
2022/08/14 04:02:53;;;;;;;;;;;15.90;99.90;;;;;;5134468;27;20344;-74
2022/08/14 04:05:19;;;;;;;;;;;15.90;99.90;;;;;;5133326;27;19964;-74
2022/08/14 04:07:45;;;;;;;;;;;15.90;99.90;;;;;;5134092;27;19904;-74
2022/08/14 04:10:11;;;;;;;;;;;15.90;99.90;;;;;;5133824;27;20337;-74
2022/08/14 04:12:36;;;;;;;;;;;15.90;99.90;;;;;;5134722;27;19903;-74
2022/08/14 04:15:03;;;;;;;;;;;15.90;99.90;;;;;;5133728;27;19915;-74
2022/08/14 04:17:28;;;;;;;;;;;16.00;99.90;;;;;;5116026;27;20429;-74
2022/08/14 04:19:54;;;;;;;;;;;16.00;99.90;;;;;;5133956;27;19953;-74
2022/08/14 04:22:20;;;;;;;;;;;16.00;99.90;;;;;;5115237;27;19914;-74
2022/08/14 04:24:46;;;;;;;;;;;15.90;99.90;;;;;;5134531;27;19903;-74
2022/08/14 04:27:12;;;;;;;;;;;15.90;99.90;;;;;;5133636;27;19911;-74
2022/08/14 04:29:41;;;;;;;;;;;16.00;99.90;;;;;;5133995;27;19910;-74
2022/08/14 04:32:08;;;;;;;;;;;15.90;99.90;;;;;;5133269;27;20413;-74
2022/08/14 04:34:34;;;;;;;;;;;15.90;99.90;;;;;;5134106;27;19904;-74
2022/08/14 04:45:14;;;;;;;;;;;15.80;99.90;;;;;;5132367;28;20515;-75
2022/08/14 04:50:26;;;;;;;;;;;15.80;99.90;;;;;;5133424;28;19972;-74
2022/08/14 04:52:51;;;;;;;;;;;15.80;99.90;;;;;;5133918;28;20343;-74
2022/08/14 04:55:17;;;;;;;;;;;15.70;99.90;;;;;;5133014;28;19914;-74
2022/08/14 04:57:42;;;;;;;;;;;15.70;99.90;;;;;;5115426;28;19907;-74
2022/08/14 05:00:08;;;;;;;;;;;15.70;99.90;;;;;;5114875;28;20255;-74
2022/08/14 05:02:34;;;;;;;;;;;15.70;99.90;;;;;;5133687;28;19903;-74
2022/08/14 05:04:59;;;;;;;;;;;15.70;99.90;;;;;;5133542;28;19953;-74
2022/08/14 05:07:25;;;;;;;;;;;15.60;99.90;;;;;;5133502;28;19903;-74
2022/08/14 05:09:51;;;;;;;;;;;15.60;99.90;;;;;;5133744;28;19908;-74
2022/08/14 05:12:16;;;;;;;;;;;15.60;99.90;;;;;;5133111;28;19990;-74
2022/08/14 05:14:42;;;;;;;;;;;15.60;99.90;;;;;;5133602;28;19942;-73
2022/08/14 05:17:09;;;;;;;;;;;15.60;99.90;;;;;;5133698;27;19915;-74
2022/08/14 05:19:35;;;;;;;;;;;15.70;99.90;;;;;;5137600;27;19910;-73
2022/08/14 05:22:00;;;;;;;;;;;15.70;99.90;;;;;;5137225;27;19997;-74
2022/08/14 05:24:26;;;;;;;;;;;15.70;99.90;;;;;;5137294;27;19904;-74
2022/08/14 05:26:52;;;;;;;;;;;15.70;99.90;;;;;;5137562;27;19903;-74
2022/08/14 05:29:17;;;;;;;;;;;15.70;99.90;;;;;;5136757;27;19911;-74
2022/08/14 05:31:43;;;;;;;;;;;15.60;99.90;;;;;;5137381;27;19947;-74
2022/08/14 05:34:09;;;;;;;;;;;15.60;99.90;;;;;;5118417;27;20229;-74
2022/08/14 05:36:35;;;;;;;;;;;15.50;99.90;;;;;;5137283;27;19907;-74
2022/08/14 05:39:01;;;;;;;;;;;15.50;99.90;;;;;;5137244;27;20390;-74
2022/08/14 05:41:26;;;;;;;;;;;15.50;99.90;;;;;;5114477;28;19954;-74
2022/08/14 05:43:52;;;;;;;;;;;15.50;99.90;;;;;;5116515;28;19912;-73
2022/08/14 05:46:23;;;;;;;;;;;15.60;99.90;;;;;;5116092;28;19914;-74
2022/08/14 05:48:53;;;;;;;;;;;15.70;99.90;;;;;;5116383;28;20263;-74
2022/08/14 05:51:19;;;;;;;;;;;15.70;99.90;;;;;;5115948;28;19911;-74
2022/08/14 05:53:45;;;;;;;;;;;15.80;99.90;;;;;;5116139;28;19993;-74
2022/08/14 05:56:11;;;;;;;;;;;15.90;99.90;;;;;;5115479;28;20350;-74
2022/08/14 05:58:36;;;;;;;;;;;16.00;99.90;;;;;;5116451;28;19908;-73
2022/08/14 06:01:02;;;;;;;;;;;16.10;99.90;;;;;;5116290;28;20359;-74
2022/08/14 06:03:28;;;;;;;;;;;16.20;99.90;;;;;;5115791;28;20306;-74
2022/08/14 06:05:54;;;;;;;;;;;16.40;99.90;;;;;;5116178;28;19953;-74
2022/08/14 06:08:24;;;;;;;;;;;16.50;99.90;;;;;;5114465;28;19907;-74
2022/08/14 06:10:50;;;;;;;;;;;16.60;99.90;;;;;;5116140;28;19908;-74
2022/08/14 06:13:17;;;;;;;;;;;16.70;99.90;;;;;;5115588;28;19939;-74
2022/08/14 06:15:43;;;;;;;;;;;16.80;99.90;;;;;;5115155;28;20379;-74
2022/08/14 06:18:09;;;;;;;;;;;17.00;99.90;;;;;;5115081;28;19908;-74
2022/08/14 06:20:35;;;;;;;;;;;17.10;99.90;;;;;;5115775;28;19904;-74
2022/08/14 06:23:01;;;;;;;;;;;17.30;99.90;;;;;;5115796;28;19904;-73
2022/08/14 06:25:26;;;;;;;;;;;17.60;99.90;;;;;;5114997;28;19964;-74
2022/08/14 06:27:52;;;;;;;;;;;17.70;99.90;;;;;;5115747;28;19908;-74
2022/08/14 06:30:19;;;;;;;;;;;17.80;99.90;;;;;;5114229;28;19910;-74
2022/08/14 06:32:45;;;;;;;;;;;17.90;99.90;;;;;;5115927;28;19908;-74
2022/08/14 06:35:13;;;;;;;;;;;18.10;99.90;;;;;;5115171;28;20274;-74
2022/08/14 06:37:45;;;;;;;;;;;18.30;99.90;;;;;;5115593;28;19911;-74
2022/08/14 06:40:12;;;;;;;;;;;18.50;99.90;;;;;;5114994;28;19957;-72
2022/08/14 06:42:38;;;;;;;;;;;18.70;99.90;;;;;;5135800;27;20305;-74
2022/08/14 06:45:04;;;;;;;;;;;18.90;99.90;;;;;;5136134;27;19956;-74
2022/08/14 06:47:34;;;;;;;;;;;19.10;99.90;;;;;;5135576;27;19910;-73
2022/08/14 06:50:00;;;;;;;;;;;19.20;99.90;;;;;;5117407;27;19903;-74
2022/08/14 06:52:26;;;;;;;;;;;19.40;99.90;;;;;;5135066;27;19976;-74
2022/08/14 06:54:51;;;;;;;;;;;19.50;99.90;;;;;;5135537;27;19903;-75
2022/08/14 06:57:17;;;;;;;;;;;19.70;99.90;;;;;;5135269;27;20408;-74
2022/08/14 06:59:42;;;;;;;;;;;19.90;99.90;;;;;;5135709;27;19904;-74
2022/08/14 07:07:37;;;;;;;;;;;20.40;99.90;;;;;;5135330;27;19927;-74
2022/08/14 07:10:03;;;;;;;;;;;20.50;99.90;;;;;;5135466;27;20025;-74
2022/08/14 07:12:29;;;;;;;;;;;20.60;99.90;;;;;;5134905;27;19911;-74
2022/08/14 07:14:54;;;;;;;;;;;20.60;99.90;;;;;;5135420;27;19909;-74
2022/08/14 07:17:20;;;;;;;;;;;20.70;99.90;;;;;;5134472;27;19954;-74
2022/08/14 07:19:46;;;;;;;;;;;20.70;99.90;;;;;;5135361;27;19910;-75
2022/08/14 07:22:11;;;;;;;;;;;20.80;99.90;;;;;;5134774;27;20316;-75
2022/08/14 07:24:37;;;;;;;;;;;20.90;99.90;;;;;;5134726;27;19957;-75
2022/08/14 07:27:02;;;;;;;;;;;21.00;99.90;;;;;;5135221;27;19935;-75
2022/08/14 07:29:28;;;;;;;;;;;21.10;99.90;;;;;;5134115;27;20352;-74
2022/08/14 07:31:53;;;;;;;;;;;21.10;99.90;;;;;;5134999;27;20333;-74
2022/08/14 07:34:19;;;;;;;;;;;21.20;99.90;;;;;;5133782;27;19907;-74
2022/08/14 07:36:44;;;;;;;;;;;21.20;99.90;;;;;;5134946;27;20354;-73
2022/08/14 07:39:10;;;;;;;;;;;21.20;99.90;;;;;;5134020;27;20240;-75
2022/08/14 07:41:36;;;;;;;;;;;21.30;99.90;;;;;;5133614;27;20059;-74
2022/08/14 07:44:02;;;;;;;;;;;21.30;99.90;;;;;;5134942;27;20268;-75
2022/08/14 07:46:27;;;;;;;;;;;21.40;99.90;;;;;;5134151;27;19904;-75
2022/08/14 07:48:53;;;;;;;;;;;21.40;99.90;;;;;;5134853;27;19907;-74
2022/08/14 07:51:19;;;;;;;;;;;21.40;99.90;;;;;;5134051;27;19907;-75
2022/08/14 07:53:44;;;;;;;;;;;21.20;99.90;;;;;;5116508;27;19903;-75
2022/08/14 07:56:10;;;;;;;;;;;21.20;99.90;;;;;;5133970;27;20256;-75
2022/08/14 07:58:37;;;;;;;;;;;21.10;99.90;;;;;;5134523;27;19952;-75
2022/08/14 08:01:03;;;;;;;;;;;21.10;99.90;;;;;;5116235;27;19946;-75
2022/08/14 08:03:31;;;;;;;;;;;21.10;99.90;;;;;;5133912;27;19918;-74
2022/08/14 08:05:57;;;;;;;;;;;21.20;99.90;;;;;;5134758;27;19946;-75
2022/08/14 08:08:23;;;;;;;;;;;21.30;99.90;;;;;;5115209;27;19942;-75
2022/08/14 08:10:52;;;;;;;;;;;21.50;99.90;;;;;;5134222;27;20304;-76
2022/08/14 08:13:18;;;;;;;;;;;21.50;99.90;;;;;;5133590;27;19911;-76
2022/08/14 08:15:49;;;;;;;;;;;21.60;99.90;;;;;;5133625;27;20404;-75
2022/08/14 08:18:16;;;;;;;;;;;21.80;99.90;;;;;;5133652;27;19908;-76
2022/08/14 08:20:44;;;;;;;;;;;21.90;99.90;;;;;;5133692;27;20241;-75
2022/08/14 08:23:10;;;;;;;;;;;22.00;99.90;;;;;;5134056;27;19903;-76
2022/08/14 08:25:37;;;;;;;;;;;21.90;99.90;;;;;;5133731;27;19910;-76
2022/08/14 08:28:06;;;;;;;;;;;22.10;99.90;;;;;;5133942;27;20370;-76
2022/08/14 08:30:32;;;;;;;;;;;22.00;99.90;;;;;;5133450;27;19981;-76
2022/08/14 08:33:00;;;;;;;;;;;22.00;99.90;;;;;;5133634;27;19903;-76
2022/08/14 08:35:30;;;;;;;;;;;22.00;99.90;;;;;;5133198;27;20033;-76
2022/08/14 08:38:03;;;;;;;;;;;22.10;99.90;;;;;;5115537;27;20251;-74
2022/08/14 08:40:34;;;;;;;;;;;22.30;99.90;;;;;;5133230;27;19956;-75
2022/08/14 08:43:00;;;;;;;;;;;22.30;99.90;;;;;;5115773;28;20359;-75
2022/08/14 08:45:26;;;;;;;;;;;22.40;99.90;;;;;;5133309;27;19953;-76
2022/08/14 08:47:51;;;;;;;;;;;22.50;99.90;;;;;;5133935;28;19950;-74
2022/08/14 08:50:19;;;;;;;;;;;22.50;99.90;;;;;;5133028;28;19977;-75
2022/08/14 08:52:51;;;;;;;;;;;22.40;99.90;;;;;;5135774;27;19972;-77
2022/08/14 08:55:38;;;;;;;;;;;22.60;99.90;;;;;;5137459;27;19952;-76
2022/08/14 08:58:05;;;;;;;;;;;22.70;99.90;;;;;;5138586;27;19913;-76
2022/08/14 09:00:33;;;;;;;;;;;23.00;99.90;;;;;;5137384;27;19903;-78
2022/08/14 09:03:16;;;;;;;;;;;23.10;99.90;;;;;;5138088;27;19907;-77
2022/08/14 09:05:52;;;;;;;;;;;23.20;99.90;;;;;;5137670;27;20004;-77
2022/08/14 09:08:19;;;;;;;;;;;23.40;99.90;;;;;;5136985;27;20323;-76
2022/08/14 09:10:45;;;;;;;;;;;23.50;99.90;;;;;;5138178;27;19956;-76
2022/08/14 09:13:11;;;;;;;;;;;23.60;99.90;;;;;;5137619;27;19960;-77
2022/08/14 09:15:39;;;;;;;;;;;23.50;99.90;;;;;;5137459;27;19907;-77
2022/08/14 09:18:05;;;;;;;;;;;23.40;99.90;;;;;;5119076;27;19908;-76
2022/08/14 09:20:31;;;;;;;;;;;23.20;99.90;;;;;;5136769;27;19903;-77
2022/08/14 09:22:57;;;;;;;;;;;23.10;99.90;;;;;;5136966;27;19903;-77
2022/08/14 09:25:23;;;;;;;;;;;23.10;99.90;;;;;;5137327;27;19932;-77
2022/08/14 09:27:48;;;;;;;;;;;23.10;99.90;;;;;;5119173;27;19904;-77
2022/08/14 09:30:14;;;;;;;;;;;23.20;99.90;;;;;;5137703;27;20368;-77
2022/08/14 09:32:58;;;;;;;;;;;23.20;99.90;;;;;;5137175;27;19942;-77
2022/08/14 09:35:31;;;;;;;;;;;23.30;99.90;;;;;;5136674;27;19907;-77
2022/08/14 09:38:06;;;;;;;;;;;23.30;99.90;;;;;;5137219;27;19950;-77
2022/08/14 09:40:54;;;;;;;;;;;23.30;99.90;;;;;;5136719;27;19977;-77
2022/08/14 09:43:31;;;;;;;;;;;23.40;99.90;;;;;;5136424;27;19907;-78
2022/08/14 09:45:57;;;;;;;;;;;23.40;99.90;;;;;;5136887;27;19948;-78
2022/08/14 09:48:24;;;;;;;;;;;23.30;99.90;;;;;;5136123;27;20260;-77
2022/08/14 09:50:51;;;;;;;;;;;23.30;99.90;;;;;;5137333;27;19907;-77
2022/08/14 09:53:33;;;;;;;;;;;23.20;99.90;;;;;;5136665;27;19911;-76
2022/08/14 09:56:00;;;;;;;;;;;23.30;99.90;;;;;;5136957;27;20288;-77
2022/08/14 09:58:45;;;;;;;;;;;23.30;99.90;;;;;;5136223;27;19907;-77
2022/08/14 10:01:14;;;;;;;;;;;23.30;99.90;;;;;;5136739;27;19949;-77
2022/08/14 10:03:54;;;;;;;;;;;23.30;99.90;;;;;;5134889;27;19911;-77
2022/08/14 10:06:23;;;;;;;;;;;23.40;99.90;;;;;;5136406;27;19910;-77
2022/08/14 10:08:56;;;;;;;;;;;23.50;99.90;;;;;;5136605;27;19907;-78
2022/08/14 10:11:28;;;;;;;;;;;23.60;99.90;;;;;;5117338;27;19903;-78
2022/08/14 10:13:56;;;;;;;;;;;23.70;99.90;;;;;;5136469;27;19907;-78
2022/08/14 10:16:27;;;;;;;;;;;23.80;99.90;;;;;;5135641;27;19907;-78
2022/08/14 10:19:05;;;;;;;;;;;23.90;99.90;;;;;;5136351;27;19908;-78
2022/08/14 10:21:31;;;;;;;;;;;23.90;99.90;;;;;;5135674;27;19907;-78
2022/08/14 10:23:57;;;;;;;;;;;23.80;99.90;;;;;;5136528;27;19963;-78
2022/08/14 10:26:24;;;;;;;;;;;23.90;99.90;;;;;;5135819;27;19903;-78
2022/08/14 10:28:51;;;;;;;;;;;23.90;99.90;;;;;;5136358;27;19958;-76
2022/08/14 10:31:23;;;;;;;;;;;23.90;99.90;;;;;;5136177;27;19904;-77
2022/08/14 10:34:08;;;;;;;;;;;24.00;99.90;;;;;;5117964;27;19908;-78
2022/08/14 10:36:38;;;;;;;;;;;24.10;99.90;;;;;;5135338;27;19907;-78
2022/08/14 10:39:13;;;;;;;;;;;24.20;99.90;;;;;;5135870;27;19998;-77
2022/08/14 10:41:40;;;;;;;;;;;24.30;99.90;;;;;;5135502;27;20091;-77
2022/08/14 10:44:08;;;;;;;;;;;24.40;99.90;;;;;;5136068;27;19951;-78
2022/08/14 10:47:03;;;;;;;;;;;24.50;99.90;;;;;;5135141;27;20354;-77
2022/08/14 10:49:29;;;;;;;;;;;24.60;99.90;;;;;;5135758;27;20317;-78
2022/08/14 10:52:14;;;;;;;;;;;24.70;99.90;;;;;;5135707;27;19907;-76
2022/08/14 10:54:43;;;;;;;;;;;24.80;99.90;;;;;;5135000;27;19914;-77
2022/08/14 10:57:21;;;;;;;;;;;24.80;99.90;;;;;;5135718;27;20229;-77
2022/08/14 10:59:52;;;;;;;;;;;24.90;99.90;;;;;;5135595;27;20305;-79
2022/08/14 11:02:19;;;;;;;;;;;25.00;99.90;;;;;;5135275;27;20233;-79
2022/08/14 11:04:57;;;;;;;;;;;25.10;99.90;;;;;;5135202;27;19962;-78
2022/08/14 11:07:23;;;;;;;;;;;25.20;99.90;;;;;;5135042;27;19907;-77
2022/08/14 11:09:56;;;;;;;;;;;25.30;99.90;;;;;;5135212;27;20296;-78
2022/08/14 11:12:22;;;;;;;;;;;25.30;99.90;;;;;;5135057;27;19903;-78
2022/08/14 11:14:56;;;;;;;;;;;25.40;99.90;;;;;;5135050;27;20364;-78
2022/08/14 11:17:22;;;;;;;;;;;25.50;99.90;;;;;;5134680;27;20364;-78
2022/08/14 11:19:48;;;;;;;;;;;25.60;99.90;;;;;;5135194;27;19909;-78
2022/08/14 11:22:16;;;;;;;;;;;25.70;99.90;;;;;;5135161;27;19949;-78
2022/08/14 11:24:43;;;;;;;;;;;25.70;99.90;;;;;;5134563;27;19938;-79
2022/08/14 11:27:10;;;;;;;;;;;25.80;99.90;;;;;;5116881;27;19907;-78
2022/08/14 11:29:37;;;;;;;;;;;25.80;99.90;;;;;;5134453;27;19904;-78
2022/08/14 11:32:04;;;;;;;;;;;25.80;99.90;;;;;;5135020;27;19915;-78
2022/08/14 11:34:29;;;;;;;;;;;25.90;99.90;;;;;;5134608;27;19960;-77
2022/08/14 11:36:55;;;;;;;;;;;25.80;99.90;;;;;;5134844;27;19911;-78
2022/08/14 11:39:21;;;;;;;;;;;25.70;99.90;;;;;;5135024;27;19908;-78
2022/08/14 11:41:47;;;;;;;;;;;25.70;99.90;;;;;;5133815;27;19954;-79
2022/08/14 11:44:12;;;;;;;;;;;25.80;99.90;;;;;;5116672;27;19949;-80
2022/08/14 11:46:40;;;;;;;;;;;25.80;99.90;;;;;;5134179;27;19904;-78
2022/08/14 11:49:08;;;;;;;;;;;25.90;99.90;;;;;;5134388;27;19910;-79
2022/08/14 11:51:35;;;;;;;;;;;25.90;99.90;;;;;;5115510;27;19986;-79
2022/08/14 11:54:01;;;;;;;;;;;26.00;99.90;;;;;;5134760;27;20244;-79
2022/08/14 11:56:34;;;;;;;;;;;26.10;99.90;;;;;;5133807;27;19907;-78
2022/08/14 11:59:00;;;;;;;;;;;26.20;99.90;;;;;;5134533;27;20356;-78
2022/08/14 12:01:27;;;;;;;;;;;26.20;99.90;;;;;;5133871;27;19947;-78
2022/08/14 12:03:55;;;;;;;;;;;26.20;99.90;;;;;;5134241;27;19952;-79
2022/08/14 12:06:21;;;;;;;;;;;26.10;99.90;;;;;;5134141;27;20374;-79
2022/08/14 12:08:49;;;;;;;;;;;26.10;99.90;;;;;;5133840;27;19911;-79
2022/08/14 12:11:15;;;;;;;;;;;26.10;99.90;;;;;;5134434;27;19927;-79
2022/08/14 12:13:42;;;;;;;;;;;26.20;99.90;;;;;;5133326;27;20352;-79
2022/08/14 12:16:09;;;;;;;;;;;26.20;99.90;;;;;;5134057;27;19918;-79
2022/08/14 12:18:36;;;;;;;;;;;26.20;99.90;;;;;;5133769;27;19911;-79
2022/08/14 12:21:12;;;;;;;;;;;26.30;99.90;;;;;;5133923;27;19903;-79
2022/08/14 12:23:38;;;;;;;;;;;26.30;99.90;;;;;;5133275;27;19911;-78
2022/08/14 12:26:05;;;;;;;;;;;26.10;99.90;;;;;;5134152;27;19942;-79
2022/08/14 12:28:30;;;;;;;;;;;26.20;99.90;;;;;;5132519;27;19903;-78
2022/08/14 12:30:57;;;;;;;;;;;26.10;99.90;;;;;;5133988;27;19910;-79
2022/08/14 12:33:24;;;;;;;;;;;26.10;99.90;;;;;;5133915;27;19903;-79
2022/08/14 12:35:51;;;;;;;;;;;26.20;99.90;;;;;;5133346;27;19914;-79
2022/08/14 12:38:17;;;;;;;;;;;26.20;99.90;;;;;;5133814;27;19986;-78
2022/08/14 12:40:50;;;;;;;;;;;26.20;99.90;;;;;;5132954;27;20048;-78
2022/08/14 12:43:18;;;;;;;;;;;26.20;99.90;;;;;;5133769;27;19938;-79
2022/08/14 12:45:50;;;;;;;;;;;26.30;99.90;;;;;;5133037;27;19963;-79
2022/08/14 12:48:17;;;;;;;;;;;26.30;99.90;;;;;;5133611;27;19903;-80
2022/08/14 12:50:43;;;;;;;;;;;26.30;99.90;;;;;;5133318;28;20367;-79
2022/08/14 12:53:09;;;;;;;;;;;26.40;99.90;;;;;;5133617;28;19908;-79
2022/08/14 12:55:36;;;;;;;;;;;26.60;99.90;;;;;;5132790;28;19908;-79
2022/08/14 12:58:04;;;;;;;;;;;26.60;99.90;;;;;;5133639;28;20425;-78
2022/08/14 13:00:30;;;;;;;;;;;26.70;99.90;;;;;;5132771;28;19907;-78
2022/08/14 13:02:56;;;;;;;;;;;26.80;99.90;;;;;;5133341;28;19904;-78
2022/08/14 13:05:26;;;;;;;;;;;26.80;99.90;;;;;;5133338;28;20006;-79
2022/08/14 13:07:52;;;;;;;;;;;27.00;99.90;;;;;;5132868;28;19942;-79
2022/08/14 13:10:19;;;;;;;;;;;27.10;99.90;;;;;;5133602;28;19903;-79
2022/08/14 13:12:45;;;;;;;;;;;27.20;99.90;;;;;;5133000;28;19990;-80
2022/08/14 13:15:12;;;;;;;;;;;27.10;99.90;;;;;;5133466;28;20354;-79
2022/08/14 13:17:40;;;;;;;;;;;27.20;99.90;;;;;;5133002;28;19915;-79
2022/08/14 13:20:06;;;;;;;;;;;27.20;99.90;;;;;;5133713;28;19946;-80
2022/08/14 13:22:33;;;;;;;;;;;27.00;99.90;;;;;;5132726;28;19903;-79
2022/08/14 13:25:01;;;;;;;;;;;26.90;99.90;;;;;;5115118;28;20348;-79
2022/08/14 13:27:26;;;;;;;;;;;26.80;99.90;;;;;;5133392;28;19946;-78
2022/08/14 13:29:55;;;;;;;;;;;26.80;99.90;;;;;;5132617;28;19947;-80
2022/08/14 13:32:23;;;;;;;;;;;26.80;99.90;;;;;;5115008;28;19948;-79
2022/08/14 13:34:50;;;;;;;;;;;26.80;99.90;;;;;;5132912;28;20616;-79
2022/08/14 13:37:16;;;;;;;;;;;26.90;99.90;;;;;;5114997;28;19908;-79
2022/08/14 13:39:47;;;;;;;;;;;27.00;99.90;;;;;;5136170;27;19907;-80
2022/08/14 13:42:13;;;;;;;;;;;27.10;99.90;;;;;;5137550;27;19915;-80
2022/08/14 13:44:40;;;;;;;;;;;27.00;99.90;;;;;;5136415;27;20005;-80
2022/08/14 13:47:05;;;;;;;;;;;26.90;99.90;;;;;;5137076;27;19903;-81
2022/08/14 13:49:31;;;;;;;;;;;26.90;99.90;;;;;;5136715;27;19910;-79
2022/08/14 13:51:58;;;;;;;;;;;26.80;99.90;;;;;;5136323;27;19903;-80
2022/08/14 13:54:26;;;;;;;;;;;26.80;99.90;;;;;;5137035;27;19903;-80
2022/08/14 13:56:53;;;;;;;;;;;26.80;99.90;;;;;;5136158;27;19907;-80
2022/08/14 13:59:19;;;;;;;;;;;26.70;99.90;;;;;;5136624;27;19908;-80
2022/08/14 14:01:45;;;;;;;;;;;26.60;99.90;;;;;;5136337;27;19903;-80
2022/08/14 14:04:12;;;;;;;;;;;26.60;99.90;;;;;;5136463;27;19903;-79
2022/08/14 14:06:38;;;;;;;;;;;26.60;99.90;;;;;;5136175;27;19911;-79
2022/08/14 14:09:05;;;;;;;;;;;26.40;99.90;;;;;;5118510;27;19903;-80
2022/08/14 14:11:31;;;;;;;;;;;26.20;99.90;;;;;;5136586;27;19904;-81
2022/08/14 14:13:58;;;;;;;;;;;26.20;99.90;;;;;;5135755;27;19904;-80
2022/08/14 14:16:25;;;;;;;;;;;26.10;99.90;;;;;;5136389;27;19952;-80
2022/08/14 14:18:54;;;;;;;;;;;26.20;99.90;;;;;;5135941;27;19915;-80
2022/08/14 14:21:25;;;;;;;;;;;26.30;99.90;;;;;;5136428;27;19907;-80
2022/08/14 14:23:51;;;;;;;;;;;26.40;99.90;;;;;;5135621;27;19947;-80
2022/08/14 14:26:17;;;;;;;;;;;26.40;99.90;;;;;;5136384;27;20255;-80
2022/08/14 14:28:49;;;;;;;;;;;26.30;99.90;;;;;;5135914;27;19911;-80
2022/08/14 14:31:20;;;;;;;;;;;26.30;99.90;;;;;;5136791;27;19904;-81
2022/08/14 14:33:49;;;;;;;;;;;26.20;99.90;;;;;;5135452;27;19910;-80
2022/08/14 14:36:25;;;;;;;;;;;26.00;99.90;;;;;;5136293;27;20324;-80